sensor_id;sensor_type;location;lat;lon;timestamp;pressure;altitude;pressure_sealevel;temperature;humidity
706;BME280;21234;48.690;9.016;2023-03-01T00:00:54;96776.72;;;-1.71;74.07
706;BME280;21234;48.690;9.016;2023-03-01T00:03:21;96775.88;;;-1.72;74.34
706;BME280;21234;48.690;9.016;2023-03-01T00:05:47;96769.72;;;-1.72;74.86
706;BME280;21234;48.690;9.016;2023-03-01T00:08:14;96772.56;;;-1.65;74.65
706;BME280;21234;48.690;9.016;2023-03-01T00:10:41;96767.41;;;-1.67;74.71
706;BME280;21234;48.690;9.016;2023-03-01T00:13:09;96775.91;;;-1.63;74.64
706;BME280;21234;48.690;9.016;2023-03-01T00:15:38;96780.88;;;-1.60;74.40
706;BME280;21234;48.690;9.016;2023-03-01T00:18:05;96777.06;;;-1.66;74.63
706;BME280;21234;48.690;9.016;2023-03-01T00:20:31;96775.41;;;-1.67;74.14
706;BME280;21234;48.690;9.016;2023-03-01T00:22:58;96770.72;;;-1.73;74.23
706;BME280;21234;48.690;9.016;2023-03-01T00:25:25;96775.84;;;-1.80;74.61
706;BME280;21234;48.690;9.016;2023-03-01T00:27:51;96775.97;;;-1.89;74.77
706;BME280;21234;48.690;9.016;2023-03-01T00:30:19;96771.81;;;-1.84;75.79
706;BME280;21234;48.690;9.016;2023-03-01T00:32:46;96773.84;;;-1.78;75.09
706;BME280;21234;48.690;9.016;2023-03-01T00:35:13;96774.53;;;-1.76;75.35
706;BME280;21234;48.690;9.016;2023-03-01T00:37:40;96775.38;;;-1.75;75.08
706;BME280;21234;48.690;9.016;2023-03-01T00:40:08;96769.19;;;-1.76;74.78
706;BME280;21234;48.690;9.016;2023-03-01T00:42:35;96767.16;;;-1.82;74.89
706;BME280;21234;48.690;9.016;2023-03-01T00:45:03;96770.78;;;-1.91;74.90
706;BME280;21234;48.690;9.016;2023-03-01T00:47:31;96768.44;;;-1.94;75.95
706;BME280;21234;48.690;9.016;2023-03-01T00:49:57;96769.31;;;-1.85;75.38
706;BME280;21234;48.690;9.016;2023-03-01T00:52:24;96772.63;;;-1.99;75.41
706;BME280;21234;48.690;9.016;2023-03-01T00:54:53;96774.56;;;-2.10;76.00
706;BME280;21234;48.690;9.016;2023-03-01T00:57:19;96770.69;;;-2.15;76.87
706;BME280;21234;48.690;9.016;2023-03-01T00:59:46;96770.91;;;-2.09;76.55
706;BME280;21234;48.690;9.016;2023-03-01T01:02:13;96758.63;;;-1.93;76.37
706;BME280;21234;48.690;9.016;2023-03-01T01:04:41;96750.31;;;-1.98;75.70
706;BME280;21234;48.690;9.016;2023-03-01T01:07:08;96749.91;;;-2.12;75.96
706;BME280;21234;48.690;9.016;2023-03-01T01:09:34;96748.59;;;-2.08;76.92
706;BME280;21234;48.690;9.016;2023-03-01T01:12:02;96751.13;;;-1.98;76.22
706;BME280;21234;48.690;9.016;2023-03-01T01:14:29;96748.22;;;-2.13;76.57
706;BME280;21234;48.690;9.016;2023-03-01T01:16:56;96745.88;;;-2.16;77.18
706;BME280;21234;48.690;9.016;2023-03-01T01:19:23;96754.25;;;-2.11;77.07
706;BME280;21234;48.690;9.016;2023-03-01T01:21:51;96750.75;;;-2.11;76.52
706;BME280;21234;48.690;9.016;2023-03-01T01:24:18;96749.38;;;-2.15;76.88
706;BME280;21234;48.690;9.016;2023-03-01T01:26:45;96744.84;;;-2.23;76.76
706;BME280;21234;48.690;9.016;2023-03-01T01:29:12;96741.34;;;-2.23;77.12
706;BME280;21234;48.690;9.016;2023-03-01T01:31:41;96741.66;;;-2.34;78.04
706;BME280;21234;48.690;9.016;2023-03-01T01:34:13;96738.78;;;-2.41;78.15
706;BME280;21234;48.690;9.016;2023-03-01T01:36:41;96739.41;;;-2.47;78.31
706;BME280;21234;48.690;9.016;2023-03-01T01:39:09;96730.75;;;-2.49;78.67
706;BME280;21234;48.690;9.016;2023-03-01T01:41:40;96732.03;;;-2.53;79.08
706;BME280;21234;48.690;9.016;2023-03-01T01:44:16;96728.38;;;-2.60;79.53
706;BME280;21234;48.690;9.016;2023-03-01T01:46:44;96732.19;;;-2.55;79.56
706;BME280;21234;48.690;9.016;2023-03-01T01:49:19;96729.53;;;-2.55;79.05
706;BME280;21234;48.690;9.016;2023-03-01T01:51:51;96726.88;;;-2.55;79.10
706;BME280;21234;48.690;9.016;2023-03-01T01:54:25;96726.03;;;-2.55;79.44
706;BME280;21234;48.690;9.016;2023-03-01T01:56:57;96723.38;;;-2.55;79.56
706;BME280;21234;48.690;9.016;2023-03-01T01:59:27;96728.72;;;-2.55;79.40
706;BME280;21234;48.690;9.016;2023-03-01T02:01:55;96716.88;;;-2.61;79.94
706;BME280;21234;48.690;9.016;2023-03-01T02:04:22;96720.72;;;-2.55;79.48
706;BME280;21234;48.690;9.016;2023-03-01T02:06:55;96715.22;;;-2.62;80.30
706;BME280;21234;48.690;9.016;2023-03-01T02:09:26;96715.00;;;-2.68;80.15
706;BME280;21234;48.690;9.016;2023-03-01T02:11:53;96704.41;;;-2.60;80.34
706;BME280;21234;48.690;9.016;2023-03-01T02:14:20;96701.78;;;-2.52;80.54
706;BME280;21234;48.690;9.016;2023-03-01T02:16:47;96711.13;;;-2.48;80.50
706;BME280;21234;48.690;9.016;2023-03-01T02:19:24;96702.97;;;-2.47;80.62
706;BME280;21234;48.690;9.016;2023-03-01T02:22:00;96704.16;;;-2.41;80.50
706;BME280;21234;48.690;9.016;2023-03-01T02:24:40;96698.53;;;-2.38;80.60
706;BME280;21234;48.690;9.016;2023-03-01T02:27:13;96698.72;;;-2.31;81.00
706;BME280;21234;48.690;9.016;2023-03-01T02:29:41;96693.09;;;-2.28;81.14
706;BME280;21234;48.690;9.016;2023-03-01T02:32:11;96690.28;;;-2.19;80.09
706;BME280;21234;48.690;9.016;2023-03-01T02:34:38;96683.28;;;-2.20;80.27
706;BME280;21234;48.690;9.016;2023-03-01T02:37:09;96684.16;;;-2.11;79.46
706;BME280;21234;48.690;9.016;2023-03-01T02:39:40;96672.13;;;-2.15;80.26
706;BME280;21234;48.690;9.016;2023-03-01T02:42:13;96679.97;;;-2.14;79.88
706;BME280;21234;48.690;9.016;2023-03-01T02:44:42;96670.00;;;-2.12;79.68
706;BME280;21234;48.690;9.016;2023-03-01T02:47:09;96663.66;;;-2.11;79.87
706;BME280;21234;48.690;9.016;2023-03-01T02:49:36;96668.31;;;-2.13;80.21
706;BME280;21234;48.690;9.016;2023-03-01T02:52:29;96666.69;;;-2.06;79.75
706;BME280;21234;48.690;9.016;2023-03-01T02:55:00;96669.47;;;-2.15;80.49
706;BME280;21234;48.690;9.016;2023-03-01T02:57:30;96670.47;;;-2.16;81.06
706;BME280;21234;48.690;9.016;2023-03-01T03:00:03;96670.66;;;-2.10;80.22
706;BME280;21234;48.690;9.016;2023-03-01T03:02:33;96663.03;;;-2.05;80.39
706;BME280;21234;48.690;9.016;2023-03-01T03:05:05;96660.53;;;-2.06;79.93
706;BME280;21234;48.690;9.016;2023-03-01T03:07:34;96651.53;;;-2.05;80.43
706;BME280;21234;48.690;9.016;2023-03-01T03:10:03;96645.06;;;-2.03;79.85
706;BME280;21234;48.690;9.016;2023-03-01T03:12:30;96651.38;;;-2.04;79.67
706;BME280;21234;48.690;9.016;2023-03-01T03:14:58;96650.38;;;-2.03;80.16
706;BME280;21234;48.690;9.016;2023-03-01T03:17:25;96639.41;;;-1.99;80.24
706;BME280;21234;48.690;9.016;2023-03-01T03:19:52;96645.38;;;-2.06;80.22
706;BME280;21234;48.690;9.016;2023-03-01T03:22:18;96645.88;;;-2.02;80.26
706;BME280;21234;48.690;9.016;2023-03-01T03:24:45;96626.75;;;-1.97;80.17
706;BME280;21234;48.690;9.016;2023-03-01T03:27:12;96635.06;;;-2.00;80.08
706;BME280;21234;48.690;9.016;2023-03-01T03:29:38;96633.06;;;-1.98;79.81
706;BME280;21234;48.690;9.016;2023-03-01T03:32:06;96633.75;;;-1.96;80.29
706;BME280;21234;48.690;9.016;2023-03-01T03:34:33;96645.03;;;-1.94;79.13
706;BME280;21234;48.690;9.016;2023-03-01T03:37:00;96644.72;;;-1.99;80.06
706;BME280;21234;48.690;9.016;2023-03-01T03:39:27;96636.91;;;-2.01;80.45
706;BME280;21234;48.690;9.016;2023-03-01T03:41:54;96634.91;;;-1.91;80.40
706;BME280;21234;48.690;9.016;2023-03-01T03:44:21;96636.72;;;-1.91;80.40
706;BME280;21234;48.690;9.016;2023-03-01T03:46:48;96634.06;;;-1.91;80.01
706;BME280;21234;48.690;9.016;2023-03-01T03:49:16;96628.41;;;-1.88;80.23
706;BME280;21234;48.690;9.016;2023-03-01T03:51:45;96627.09;;;-1.76;80.03
706;BME280;21234;48.690;9.016;2023-03-01T03:54:11;96633.25;;;-1.76;79.51
706;BME280;21234;48.690;9.016;2023-03-01T03:56:38;96637.59;;;-1.75;79.87
706;BME280;21234;48.690;9.016;2023-03-01T03:59:04;96633.25;;;-1.76;79.54
706;BME280;21234;48.690;9.016;2023-03-01T04:01:31;96633.75;;;-1.80;80.26
706;BME280;21234;48.690;9.016;2023-03-01T04:03:58;96621.59;;;-1.75;79.89
706;BME280;21234;48.690;9.016;2023-03-01T04:06:31;96629.09;;;-1.70;79.72
706;BME280;21234;48.690;9.016;2023-03-01T04:08:57;96622.09;;;-1.71;79.73
706;BME280;21234;48.690;9.016;2023-03-01T04:11:26;96625.44;;;-1.77;79.78
706;BME280;21234;48.690;9.016;2023-03-01T04:13:54;96620.59;;;-1.74;79.45
706;BME280;21234;48.690;9.016;2023-03-01T04:16:21;96614.94;;;-1.79;79.75
706;BME280;21234;48.690;9.016;2023-03-01T04:18:48;96614.94;;;-1.79;79.93
706;BME280;21234;48.690;9.016;2023-03-01T04:21:14;96613.94;;;-1.78;80.29
706;BME280;21234;48.690;9.016;2023-03-01T04:23:42;96602.09;;;-1.83;80.38
706;BME280;21234;48.690;9.016;2023-03-01T04:26:09;96613.75;;;-1.84;80.33
706;BME280;21234;48.690;9.016;2023-03-01T04:28:37;96606.59;;;-1.84;80.68
706;BME280;21234;48.690;9.016;2023-03-01T04:31:07;96597.44;;;-1.81;80.88
706;BME280;21234;48.690;9.016;2023-03-01T04:33:39;96603.44;;;-1.71;79.98
706;BME280;21234;48.690;9.016;2023-03-01T04:36:08;96601.78;;;-1.72;79.85
706;BME280;21234;48.690;9.016;2023-03-01T04:38:35;96607.13;;;-1.72;79.87
706;BME280;21234;48.690;9.016;2023-03-01T04:41:05;96607.28;;;-1.65;80.03
706;BME280;21234;48.690;9.016;2023-03-01T04:43:32;96606.28;;;-1.64;79.82
706;BME280;21234;48.690;9.016;2023-03-01T04:46:02;96608.28;;;-1.66;80.10
706;BME280;21234;48.690;9.016;2023-03-01T04:48:30;96602.13;;;-1.67;80.01
706;BME280;21234;48.690;9.016;2023-03-01T04:50:58;96604.78;;;-1.67;79.86
706;BME280;21234;48.690;9.016;2023-03-01T04:53:25;96596.97;;;-1.68;80.26
706;BME280;21234;48.690;9.016;2023-03-01T04:55:53;96599.47;;;-1.67;80.32
706;BME280;21234;48.690;9.016;2023-03-01T04:58:21;96599.28;;;-1.65;79.97
706;BME280;21234;48.690;9.016;2023-03-01T05:00:48;96594.13;;;-1.67;80.10
706;BME280;21234;48.690;9.016;2023-03-01T05:03:15;96596.44;;;-1.72;79.75
706;BME280;21234;48.690;9.016;2023-03-01T05:05:44;96596.13;;;-1.69;79.88
706;BME280;21234;48.690;9.016;2023-03-01T05:08:12;96599.13;;;-1.72;80.14
706;BME280;21234;48.690;9.016;2023-03-01T05:10:44;96600.94;;;-1.73;80.48
706;BME280;21234;48.690;9.016;2023-03-01T05:13:11;96599.97;;;-1.63;81.02
706;BME280;21234;48.690;9.016;2023-03-01T05:15:41;96596.94;;;-1.60;80.30
706;BME280;21234;48.690;9.016;2023-03-01T05:18:08;96587.78;;;-1.58;80.09
706;BME280;21234;48.690;9.016;2023-03-01T05:20:37;96588.09;;;-1.61;80.08
706;BME280;21234;48.690;9.016;2023-03-01T05:23:05;96588.59;;;-1.57;79.97
706;BME280;21234;48.690;9.016;2023-03-01T05:25:33;96597.47;;;-1.65;80.53
706;BME280;21234;48.690;9.016;2023-03-01T05:28:00;96594.63;;;-1.63;80.58
706;BME280;21234;48.690;9.016;2023-03-01T05:30:30;96598.63;;;-1.67;80.87
706;BME280;21234;48.690;9.016;2023-03-01T05:33:00;96591.63;;;-1.68;80.65
706;BME280;21234;48.690;9.016;2023-03-01T05:35:27;96601.44;;;-1.61;80.99
706;BME280;21234;48.690;9.016;2023-03-01T05:37:54;96605.28;;;-1.55;80.68
706;BME280;21234;48.690;9.016;2023-03-01T05:40:22;96599.97;;;-1.63;80.32
706;BME280;21234;48.690;9.016;2023-03-01T05:42:52;96601.13;;;-1.74;81.34
706;BME280;21234;48.690;9.016;2023-03-01T05:45:18;96599.78;;;-1.70;81.45
706;BME280;21234;48.690;9.016;2023-03-01T05:47:46;96597.63;;;-1.75;81.46
706;BME280;21234;48.690;9.016;2023-03-01T05:50:17;96598.13;;;-1.71;81.51
706;BME280;21234;48.690;9.016;2023-03-01T05:52:46;96602.94;;;-1.58;80.39
706;BME280;21234;48.690;9.016;2023-03-01T05:55:14;96591.09;;;-1.56;80.60
706;BME280;21234;48.690;9.016;2023-03-01T05:57:40;96589.59;;;-1.58;80.80
706;BME280;21234;48.690;9.016;2023-03-01T06:00:08;96587.97;;;-1.67;81.24
706;BME280;21234;48.690;9.016;2023-03-01T06:02:35;96587.63;;;-1.64;81.20
706;BME280;21234;48.690;9.016;2023-03-01T06:05:03;96585.59;;;-1.54;81.23
706;BME280;21234;48.690;9.016;2023-03-01T06:07:32;96589.59;;;-1.50;80.86
706;BME280;21234;48.690;9.016;2023-03-01T06:09:58;96587.78;;;-1.50;80.39
706;BME280;21234;48.690;9.016;2023-03-01T06:12:25;96584.94;;;-1.48;80.63
706;BME280;21234;48.690;9.016;2023-03-01T06:14:52;96585.78;;;-1.48;81.02
706;BME280;21234;48.690;9.016;2023-03-01T06:17:18;96578.94;;;-1.50;80.52
706;BME280;21234;48.690;9.016;2023-03-01T06:19:46;96588.44;;;-1.48;80.95
706;BME280;21234;48.690;9.016;2023-03-01T06:22:13;96581.13;;;-1.46;81.09
706;BME280;21234;48.690;9.016;2023-03-01T06:24:41;96581.44;;;-1.41;80.62
706;BME280;21234;48.690;9.016;2023-03-01T06:27:08;96578.78;;;-1.32;79.79
706;BME280;21234;48.690;9.016;2023-03-01T06:29:34;96570.44;;;-1.38;80.33
706;BME280;21234;48.690;9.016;2023-03-01T06:32:02;96568.78;;;-1.30;80.24
706;BME280;21234;48.690;9.016;2023-03-01T06:34:29;96572.91;;;-1.28;80.18
706;BME280;21234;48.690;9.016;2023-03-01T06:36:56;96574.06;;;-1.22;80.44
706;BME280;21234;48.690;9.016;2023-03-01T06:39:23;96581.56;;;-1.26;80.15
706;BME280;21234;48.690;9.016;2023-03-01T06:41:51;96576.41;;;-1.19;80.25
706;BME280;21234;48.690;9.016;2023-03-01T06:44:17;96575.91;;;-1.23;80.20
706;BME280;21234;48.690;9.016;2023-03-01T06:46:44;96583.06;;;-1.15;80.21
706;BME280;21234;48.690;9.016;2023-03-01T06:49:10;96578.72;;;-1.08;80.04
706;BME280;21234;48.690;9.016;2023-03-01T06:51:37;96575.03;;;-0.99;79.60
706;BME280;21234;48.690;9.016;2023-03-01T06:54:04;96580.84;;;-0.95;79.42
706;BME280;21234;48.690;9.016;2023-03-01T06:56:32;96577.81;;;-0.92;78.45
706;BME280;21234;48.690;9.016;2023-03-01T06:59:00;96580.84;;;-0.95;78.46
706;BME280;21234;48.690;9.016;2023-03-01T07:01:27;96576.63;;;-0.82;77.88
706;BME280;21234;48.690;9.016;2023-03-01T07:03:54;96572.78;;;-0.71;77.67
706;BME280;21234;48.690;9.016;2023-03-01T07:06:22;96577.44;;;-0.73;77.43
706;BME280;21234;48.690;9.016;2023-03-01T07:08:49;96580.50;;;-0.45;76.42
706;BME280;21234;48.690;9.016;2023-03-01T07:11:16;96580.06;;;-0.26;75.11
706;BME280;21234;48.690;9.016;2023-03-01T07:13:42;96566.09;;;-0.36;75.09
706;BME280;21234;48.690;9.016;2023-03-01T07:16:10;96566.38;;;-0.31;74.70
706;BME280;21234;48.690;9.016;2023-03-01T07:18:37;96567.94;;;-0.06;73.54
706;BME280;21234;48.690;9.016;2023-03-01T07:21:05;96570.22;;;0.43;71.96
706;BME280;21234;48.690;9.016;2023-03-01T07:23:32;96561.44;;;0.57;71.04
706;BME280;21234;48.690;9.016;2023-03-01T07:25:58;96557.81;;;1.17;69.53
706;BME280;21234;48.690;9.016;2023-03-01T07:28:26;96546.25;;;1.82;65.61
706;BME280;21234;48.690;9.016;2023-03-01T07:30:53;96547.75;;;2.06;64.59
706;BME280;21234;48.690;9.016;2023-03-01T07:33:21;96545.66;;;2.72;61.71
706;BME280;21234;48.690;9.016;2023-03-01T07:35:48;96541.69;;;2.19;62.26
706;BME280;21234;48.690;9.016;2023-03-01T07:38:14;96552.81;;;1.80;64.15
706;BME280;21234;48.690;9.016;2023-03-01T07:40:41;96546.34;;;1.89;64.06
706;BME280;21234;48.690;9.016;2023-03-01T07:43:08;96545.28;;;2.75;61.83
706;BME280;21234;48.690;9.016;2023-03-01T07:45:35;96544.47;;;3.37;59.76
706;BME280;21234;48.690;9.016;2023-03-01T07:48:02;96541.38;;;3.06;58.94
706;BME280;21234;48.690;9.016;2023-03-01T07:50:30;96529.41;;;2.31;61.59
706;BME280;21234;48.690;9.016;2023-03-01T07:52:57;96534.03;;;1.94;62.44
706;BME280;21234;48.690;9.016;2023-03-01T07:55:23;96534.81;;;1.23;64.72
706;BME280;21234;48.690;9.016;2023-03-01T07:57:50;96525.13;;;0.92;67.40
706;BME280;21234;48.690;9.016;2023-03-01T08:00:17;96532.41;;;1.13;66.97
706;BME280;21234;48.690;9.016;2023-03-01T08:02:44;96528.50;;;1.45;65.04
706;BME280;21234;48.690;9.016;2023-03-01T08:05:11;96527.03;;;1.43;65.79
706;BME280;21234;48.690;9.016;2023-03-01T08:07:39;96528.69;;;1.80;64.38
706;BME280;21234;48.690;9.016;2023-03-01T08:10:06;96520.28;;;1.83;63.55
706;BME280;21234;48.690;9.016;2023-03-01T08:12:33;96525.44;;;1.33;64.56
706;BME280;21234;48.690;9.016;2023-03-01T08:15:00;96521.03;;;1.11;65.69
706;BME280;21234;48.690;9.016;2023-03-01T08:17:27;96524.84;;;0.87;66.57
706;BME280;21234;48.690;9.016;2023-03-01T08:19:53;96532.50;;;0.90;67.45
706;BME280;21234;48.690;9.016;2023-03-01T08:22:20;96529.72;;;1.13;66.21
706;BME280;21234;48.690;9.016;2023-03-01T08:24:48;96525.84;;;1.01;67.20
706;BME280;21234;48.690;9.016;2023-03-01T08:27:15;96532.69;;;0.89;67.33
706;BME280;21234;48.690;9.016;2023-03-01T08:29:41;96525.81;;;1.30;66.07
706;BME280;21234;48.690;9.016;2023-03-01T08:32:08;96522.19;;;3.50;59.14
706;BME280;21234;48.690;9.016;2023-03-01T08:34:35;96517.44;;;5.89;52.62
706;BME280;21234;48.690;9.016;2023-03-01T08:37:02;96516.19;;;7.48;47.07
706;BME280;21234;48.690;9.016;2023-03-01T08:39:29;96512.94;;;8.84;43.92
706;BME280;21234;48.690;9.016;2023-03-01T08:41:57;96503.38;;;8.69;42.61
706;BME280;21234;48.690;9.016;2023-03-01T08:44:23;96501.69;;;8.27;43.17
706;BME280;21234;48.690;9.016;2023-03-01T08:46:50;96505.69;;;7.76;43.54
706;BME280;21234;48.690;9.016;2023-03-01T08:49:19;96506.63;;;7.08;44.87
706;BME280;21234;48.690;9.016;2023-03-01T08:51:47;96508.91;;;6.30;46.94
706;BME280;21234;48.690;9.016;2023-03-01T08:54:16;96511.47;;;6.19;47.58
706;BME280;21234;48.690;9.016;2023-03-01T08:56:44;96508.91;;;5.28;50.00
706;BME280;21234;48.690;9.016;2023-03-01T08:59:13;96509.72;;;5.48;49.80
706;BME280;21234;48.690;9.016;2023-03-01T09:01:40;96498.81;;;5.03;50.96
706;BME280;21234;48.690;9.016;2023-03-01T09:04:08;96499.84;;;4.96;50.84
706;BME280;21234;48.690;9.016;2023-03-01T09:06:35;96501.13;;;4.21;52.40
706;BME280;21234;48.690;9.016;2023-03-01T09:09:02;96500.84;;;3.96;53.64
706;BME280;21234;48.690;9.016;2023-03-01T09:11:29;96500.09;;;3.54;54.82
706;BME280;21234;48.690;9.016;2023-03-01T09:13:56;96493.88;;;3.47;55.45
706;BME280;21234;48.690;9.016;2023-03-01T09:16:24;96487.59;;;2.99;56.24
706;BME280;21234;48.690;9.016;2023-03-01T09:18:52;96494.34;;;3.16;56.59
706;BME280;21234;48.690;9.016;2023-03-01T09:21:21;96479.34;;;2.38;57.43
706;BME280;21234;48.690;9.016;2023-03-01T09:23:48;96474.41;;;2.42;58.58
706;BME280;21234;48.690;9.016;2023-03-01T09:26:17;96468.72;;;2.51;58.97
706;BME280;21234;48.690;9.016;2023-03-01T09:28:47;96469.53;;;2.24;58.85
706;BME280;21234;48.690;9.016;2023-03-01T09:31:16;96463.59;;;2.56;58.29
706;BME280;21234;48.690;9.016;2023-03-01T09:33:46;96473.53;;;2.97;58.02
706;BME280;21234;48.690;9.016;2023-03-01T09:36:14;96475.28;;;3.11;58.85
706;BME280;21234;48.690;9.016;2023-03-01T09:38:41;96473.47;;;3.18;58.17
706;BME280;21234;48.690;9.016;2023-03-01T09:41:22;96473.41;;;3.53;57.81
706;BME280;21234;48.690;9.016;2023-03-01T09:43:55;96469.78;;;3.80;56.27
706;BME280;21234;48.690;9.016;2023-03-01T09:46:25;96467.47;;;3.70;55.96
706;BME280;21234;48.690;9.016;2023-03-01T09:48:56;96473.63;;;3.58;56.08
706;BME280;21234;48.690;9.016;2023-03-01T09:51:26;96468.75;;;3.27;55.64
706;BME280;21234;48.690;9.016;2023-03-01T09:53:54;96465.97;;;3.07;56.71
706;BME280;21234;48.690;9.016;2023-03-01T09:56:28;96469.69;;;3.06;56.84
706;BME280;21234;48.690;9.016;2023-03-01T09:58:59;96468.97;;;3.32;56.63
706;BME280;21234;48.690;9.016;2023-03-01T10:01:36;96461.41;;;3.49;57.19
706;BME280;21234;48.690;9.016;2023-03-01T10:04:17;96461.22;;;3.50;56.09
706;BME280;21234;48.690;9.016;2023-03-01T10:06:55;96450.56;;;3.83;56.67
706;BME280;21234;48.690;9.016;2023-03-01T10:09:33;96447.88;;;4.03;55.72
706;BME280;21234;48.690;9.016;2023-03-01T10:12:02;96444.78;;;3.86;55.00
706;BME280;21234;48.690;9.016;2023-03-01T10:14:35;96449.66;;;3.63;54.91
706;BME280;21234;48.690;9.016;2023-03-01T10:17:04;96440.63;;;3.84;56.78
706;BME280;21234;48.690;9.016;2023-03-01T10:19:40;96440.84;;;3.89;54.74
706;BME280;21234;48.690;9.016;2023-03-01T10:22:13;96440.25;;;4.13;56.04
706;BME280;21234;48.690;9.016;2023-03-01T10:24:41;96433.59;;;4.02;55.63
706;BME280;21234;48.690;9.016;2023-03-01T10:27:12;96434.41;;;3.96;55.83
706;BME280;21234;48.690;9.016;2023-03-01T10:29:46;96435.28;;;4.10;54.63
706;BME280;21234;48.690;9.016;2023-03-01T10:32:17;96435.66;;;3.87;54.46
706;BME280;21234;48.690;9.016;2023-03-01T10:34:45;96428.41;;;3.94;54.13
706;BME280;21234;48.690;9.016;2023-03-01T10:37:14;96428.81;;;3.78;54.63
706;BME280;21234;48.690;9.016;2023-03-01T10:39:58;96424.28;;;3.98;54.61
706;BME280;21234;48.690;9.016;2023-03-01T10:42:27;96423.91;;;4.21;54.97
706;BME280;21234;48.690;9.016;2023-03-01T10:44:55;96425.16;;;4.19;53.74
706;BME280;21234;48.690;9.016;2023-03-01T10:47:24;96427.19;;;4.23;53.65
706;BME280;21234;48.690;9.016;2023-03-01T10:50:04;96430.72;;;4.37;53.29
706;BME280;21234;48.690;9.016;2023-03-01T10:52:33;96420.78;;;4.31;54.16
706;BME280;21234;48.690;9.016;2023-03-01T10:55:04;96415.41;;;4.24;53.39
706;BME280;21234;48.690;9.016;2023-03-01T10:57:47;96410.84;;;4.25;53.56
706;BME280;21234;48.690;9.016;2023-03-01T11:00:23;96408.78;;;4.53;54.02
706;BME280;21234;48.690;9.016;2023-03-01T11:03:02;96403.78;;;4.70;53.60
706;BME280;21234;48.690;9.016;2023-03-01T11:05:30;96411.22;;;4.81;53.93
706;BME280;21234;48.690;9.016;2023-03-01T11:08:00;96396.44;;;4.97;53.35
706;BME280;21234;48.690;9.016;2023-03-01T11:10:28;96398.16;;;4.85;53.21
706;BME280;21234;48.690;9.016;2023-03-01T11:13:07;96394.44;;;4.79;53.87
706;BME280;21234;48.690;9.016;2023-03-01T11:15:35;96390.31;;;4.70;51.95
706;BME280;21234;48.690;9.016;2023-03-01T11:18:02;96392.34;;;4.81;53.71
706;BME280;21234;48.690;9.016;2023-03-01T11:20:32;96389.41;;;4.96;53.04
706;BME280;21234;48.690;9.016;2023-03-01T11:23:03;96376.31;;;5.06;52.50
706;BME280;21234;48.690;9.016;2023-03-01T11:25:34;96370.06;;;5.19;52.28
706;BME280;21234;48.690;9.016;2023-03-01T11:28:04;96368.22;;;5.06;51.34
706;BME280;21234;48.690;9.016;2023-03-01T11:30:34;96365.31;;;5.07;52.09
706;BME280;21234;48.690;9.016;2023-03-01T11:33:13;96359.28;;;5.19;52.08
706;BME280;21234;48.690;9.016;2023-03-01T11:35:49;96348.81;;;5.35;51.48
706;BME280;21234;48.690;9.016;2023-03-01T11:38:23;96345.72;;;5.32;52.16
706;BME280;21234;48.690;9.016;2023-03-01T11:40:54;96357.66;;;5.04;51.56
706;BME280;21234;48.690;9.016;2023-03-01T11:43:32;96347.47;;;5.13;52.59
706;BME280;21234;48.690;9.016;2023-03-01T11:46:29;96350.00;;;5.08;51.16
706;BME280;21234;48.690;9.016;2023-03-01T11:49:12;96341.53;;;4.98;52.90
706;BME280;21234;48.690;9.016;2023-03-01T11:51:48;96333.59;;;5.16;52.88
706;BME280;21234;48.690;9.016;2023-03-01T11:54:30;96343.47;;;5.22;52.50
706;BME280;21234;48.690;9.016;2023-03-01T11:57:02;96333.06;;;5.32;52.12
706;BME280;21234;48.690;9.016;2023-03-01T12:08:34;96314.84;;;5.28;52.88
706;BME280;21234;48.690;9.016;2023-03-01T12:11:09;96310.78;;;5.50;50.82
706;BME280;21234;48.690;9.016;2023-03-01T12:14:01;96313.38;;;5.63;50.92
706;BME280;21234;48.690;9.016;2023-03-01T12:16:45;96300.50;;;5.65;50.51
706;BME280;21234;48.690;9.016;2023-03-01T12:19:44;96297.63;;;5.60;51.94
706;BME280;21234;48.690;9.016;2023-03-01T12:22:24;96296.81;;;5.60;50.96
706;BME280;21234;48.690;9.016;2023-03-01T12:25:22;96281.84;;;5.64;51.41
706;BME280;21234;48.690;9.016;2023-03-01T12:28:11;96278.69;;;5.42;49.84
706;BME280;21234;48.690;9.016;2023-03-01T12:30:51;96279.50;;;5.43;50.50
706;BME280;21234;48.690;9.016;2023-03-01T12:33:27;96277.09;;;5.59;50.38
706;BME280;21234;48.690;9.016;2023-03-01T12:36:13;96268.75;;;5.67;49.65
706;BME280;21234;48.690;9.016;2023-03-01T12:38:49;96267.38;;;5.83;50.44
706;BME280;21234;48.690;9.016;2023-03-01T12:41:36;96265.38;;;6.03;50.36
706;BME280;21234;48.690;9.016;2023-03-01T12:44:15;96271.59;;;6.04;50.23
706;BME280;21234;48.690;9.016;2023-03-01T12:46:55;96255.44;;;5.97;50.14
706;BME280;21234;48.690;9.016;2023-03-01T12:49:28;96254.28;;;6.12;50.03
706;BME280;21234;48.690;9.016;2023-03-01T12:52:00;96233.22;;;6.20;48.74
706;BME280;21234;48.690;9.016;2023-03-01T12:54:31;96240.78;;;6.30;48.52
706;BME280;21234;48.690;9.016;2023-03-01T12:57:03;96231.22;;;6.34;49.29
706;BME280;21234;48.690;9.016;2023-03-01T12:59:37;96227.22;;;6.73;50.28
706;BME280;21234;48.690;9.016;2023-03-01T13:02:14;96227.97;;;6.80;47.62
706;BME280;21234;48.690;9.016;2023-03-01T13:04:54;96219.06;;;7.21;46.82
706;BME280;21234;48.690;9.016;2023-03-01T13:07:30;96219.94;;;7.33;46.78
706;BME280;21234;48.690;9.016;2023-03-01T13:10:16;96208.69;;;7.60;47.49
706;BME280;21234;48.690;9.016;2023-03-01T13:13:10;96210.97;;;7.74;45.76
706;BME280;21234;48.690;9.016;2023-03-01T13:15:39;96208.38;;;8.26;45.90
706;BME280;21234;48.690;9.016;2023-03-01T13:18:28;96209.81;;;8.40;45.09
706;BME280;21234;48.690;9.016;2023-03-01T13:20:56;96204.28;;;8.35;43.88
706;BME280;21234;48.690;9.016;2023-03-01T13:23:26;96211.06;;;8.50;44.23
706;BME280;21234;48.690;9.016;2023-03-01T13:26:11;96200.69;;;8.47;43.94
706;BME280;21234;48.690;9.016;2023-03-01T13:28:51;96208.44;;;8.66;44.19
706;BME280;21234;48.690;9.016;2023-03-01T13:34:52;96201.69;;;9.54;41.34
706;BME280;21234;48.690;9.016;2023-03-01T13:37:31;96198.44;;;10.41;40.87
706;BME280;21234;48.690;9.016;2023-03-01T13:40:00;96195.72;;;11.28;38.38
706;BME280;21234;48.690;9.016;2023-03-01T13:42:38;96191.66;;;11.31;37.28
706;BME280;21234;48.690;9.016;2023-03-01T13:45:18;96198.56;;;12.02;36.65
706;BME280;21234;48.690;9.016;2023-03-01T13:47:46;96199.50;;;11.81;34.99
706;BME280;21234;48.690;9.016;2023-03-01T13:50:20;96188.13;;;11.30;35.79
706;BME280;21234;48.690;9.016;2023-03-01T13:52:51;96187.97;;;12.01;36.40
706;BME280;21234;48.690;9.016;2023-03-01T13:55:21;96189.06;;;12.47;34.41